Austin, Texas
Traffic Map
Current Weather Conditions
Austin, Texas
Overcast Haze
Overcast
27°
Feels Like: 30°
Wind Chill: 27° Ceiling: 1900
Heat Index: 30° Visibility: 6mi
Dew Point: 23° Wind: 5mph
Humidity: 79% Direction: ° ()
Pressure: 29.89in Gusts: 0mph
Raw Report DataKATT 021551Z AUTO VRB04KT 6SM HZ BKN019 OVC032 27/23 A2989 RMK AO2 SLP108 T02720233
Traffic Incident Summary
Active as of:
Severity:
Category:
InformationThere was an issue retrieving the traffic information for this location. Please try a different location or try again shortly.
Advertisements
Track Severe Weather on mobile